createdAt,value
2023-05-25T00:01:09.127Z,14.95
2023-05-25T00:03:36.432Z,14.99
2023-05-25T00:06:04.063Z,14.98
2023-05-25T00:08:31.531Z,14.98
2023-05-25T00:10:58.958Z,15.02
2023-05-25T00:13:26.548Z,15.06
2023-05-25T00:15:53.667Z,15.06
2023-05-25T00:18:20.833Z,15.01
2023-05-25T00:20:47.954Z,14.95
2023-05-25T00:23:15.134Z,14.94
2023-05-25T00:25:42.569Z,14.90
2023-05-25T00:28:11.394Z,14.87
2023-05-25T00:30:38.832Z,14.87
2023-05-25T00:33:07.215Z,14.86
2023-05-25T00:35:34.890Z,14.89
2023-05-25T00:38:02.032Z,14.87
2023-05-25T00:40:29.017Z,14.87
2023-05-25T00:42:56.216Z,14.83
2023-05-25T00:45:23.567Z,14.78
2023-05-25T00:47:51.928Z,14.76
2023-05-25T00:50:19.498Z,14.72
2023-05-25T00:52:46.639Z,14.67
2023-05-25T00:55:13.792Z,14.65
2023-05-25T00:57:40.899Z,14.67
2023-05-25T01:00:13.234Z,14.70
2023-05-25T01:02:41.026Z,14.68
2023-05-25T01:05:08.525Z,14.62
2023-05-25T01:07:37.032Z,14.57
2023-05-25T01:10:08.105Z,14.58
2023-05-25T01:12:39.321Z,14.58
2023-05-25T01:15:07.820Z,14.56
2023-05-25T01:17:38.309Z,14.59
2023-05-25T01:20:11.104Z,14.64
2023-05-25T01:23:12.384Z,14.69
2023-05-25T01:25:43.241Z,14.67
2023-05-25T01:28:18.338Z,14.66
2023-05-25T01:30:46.881Z,14.63
2023-05-25T01:33:13.913Z,14.62
2023-05-25T01:35:41.896Z,14.64
2023-05-25T01:38:09.446Z,14.62
2023-05-25T01:40:36.632Z,14.53
2023-05-25T01:43:04.564Z,14.54
2023-05-25T01:45:34.317Z,14.62
2023-05-25T01:48:04.318Z,14.57
2023-05-25T01:50:49.196Z,14.54
2023-05-25T01:53:22.230Z,14.58
2023-05-25T01:55:57.822Z,14.60
2023-05-25T01:58:26.099Z,14.58
2023-05-25T02:00:53.134Z,14.55
2023-05-25T02:03:20.650Z,14.57
2023-05-25T02:05:49.340Z,14.58
2023-05-25T02:08:16.559Z,14.53
2023-05-25T02:10:43.604Z,14.48
2023-05-25T02:13:12.251Z,14.53
2023-05-25T02:15:39.432Z,14.59
2023-05-25T02:18:06.578Z,14.61
2023-05-25T02:20:33.617Z,14.65
2023-05-25T02:23:01.018Z,14.73
2023-05-25T02:25:28.273Z,14.81
2023-05-25T02:27:55.881Z,14.85
2023-05-25T02:30:23.112Z,14.92
2023-05-25T02:32:50.972Z,15.00
2023-05-25T02:35:18.116Z,15.06
2023-05-25T02:37:45.443Z,15.14
2023-05-25T02:40:14.712Z,15.20
2023-05-25T02:42:41.821Z,15.25
2023-05-25T02:45:12.698Z,15.31
2023-05-25T02:47:41.159Z,15.34
2023-05-25T02:50:09.128Z,15.38
2023-05-25T02:52:42.587Z,15.45
2023-05-25T02:55:18.960Z,15.50
2023-05-25T02:57:47.663Z,15.56
2023-05-25T03:00:29.403Z,15.61
2023-05-25T03:02:56.811Z,15.63
2023-05-25T03:05:23.868Z,15.63
2023-05-25T03:07:51.210Z,15.63
2023-05-25T03:10:18.367Z,15.62
2023-05-25T03:12:45.462Z,15.64
2023-05-25T03:15:14.093Z,15.65
2023-05-25T03:17:41.437Z,15.65
2023-05-25T03:20:10.579Z,15.67
2023-05-25T03:22:42.027Z,15.71
2023-05-25T03:25:12.569Z,15.75
2023-05-25T03:27:40.209Z,15.75
2023-05-25T03:30:09.228Z,15.77
2023-05-25T03:32:36.807Z,15.82
2023-05-25T03:35:05.488Z,15.84
2023-05-25T03:37:33.095Z,15.86
2023-05-25T03:40:00.250Z,15.92
2023-05-25T03:42:28.089Z,15.95
2023-05-25T03:44:55.282Z,15.98
2023-05-25T03:47:22.425Z,15.96
2023-05-25T03:49:49.623Z,15.92
2023-05-25T03:52:16.731Z,15.96
2023-05-25T03:54:43.851Z,15.97
2023-05-25T03:57:11.029Z,16.01
2023-05-25T03:59:38.184Z,16.04
2023-05-25T04:02:05.493Z,16.00
2023-05-25T04:04:32.652Z,15.98
2023-05-25T04:07:00.076Z,15.97
2023-05-25T04:09:27.273Z,15.96
2023-05-25T04:11:54.383Z,15.96
2023-05-25T04:14:21.837Z,15.94
2023-05-25T04:16:49.570Z,15.89
2023-05-25T04:19:17.282Z,15.74
2023-05-25T04:21:44.362Z,15.62
2023-05-25T04:24:12.174Z,15.58
2023-05-25T04:26:40.415Z,15.54
2023-05-25T04:29:10.099Z,15.53
2023-05-25T04:31:56.790Z,15.49
2023-05-25T04:34:34.366Z,15.46
2023-05-25T04:37:09.162Z,15.41
2023-05-25T04:39:37.350Z,15.37
2023-05-25T04:42:06.140Z,15.38
2023-05-25T04:44:34.398Z,15.39
2023-05-25T04:47:02.933Z,15.43
2023-05-25T04:49:33.971Z,15.46
2023-05-25T04:52:01.609Z,15.49
2023-05-25T04:54:30.719Z,15.48
2023-05-25T04:57:00.482Z,15.53
2023-05-25T04:59:27.896Z,15.57
2023-05-25T05:01:55.022Z,15.61
2023-05-25T05:04:22.149Z,15.66
2023-05-25T05:06:49.993Z,15.65
2023-05-25T05:09:22.996Z,15.65
2023-05-25T05:11:50.172Z,15.62
2023-05-25T05:14:18.859Z,15.67
2023-05-25T05:16:48.268Z,15.70
2023-05-25T05:19:16.190Z,15.74
2023-05-25T05:21:43.333Z,15.77
2023-05-25T05:24:10.631Z,15.83
2023-05-25T05:26:55.542Z,15.85
2023-05-25T05:29:29.394Z,15.87
2023-05-25T05:31:56.994Z,15.85
2023-05-25T05:34:25.257Z,15.84
2023-05-25T05:36:57.379Z,15.83
2023-05-25T05:39:27.113Z,15.82
2023-05-25T05:41:54.747Z,15.81
2023-05-25T05:44:23.919Z,15.82
2023-05-25T05:46:52.674Z,15.83
2023-05-25T05:49:19.955Z,15.85
2023-05-25T05:51:48.703Z,15.86
2023-05-25T05:54:16.418Z,15.90
2023-05-25T05:56:44.093Z,15.93
2023-05-25T05:59:12.794Z,15.96
2023-05-25T06:01:39.892Z,15.97
2023-05-25T06:04:07.105Z,15.98
2023-05-25T06:06:37.789Z,15.99
2023-05-25T06:09:07.137Z,15.98
2023-05-25T06:11:37.491Z,15.98
2023-05-25T06:14:04.762Z,15.99
2023-05-25T06:16:31.892Z,16.01
2023-05-25T06:18:59.012Z,16.01
2023-05-25T06:21:27.040Z,16.01
2023-05-25T06:23:54.754Z,16.01
2023-05-25T06:26:22.100Z,16.06
2023-05-25T06:28:50.156Z,16.10
2023-05-25T06:31:17.608Z,16.13
2023-05-25T06:33:44.829Z,16.14
2023-05-25T06:36:15.645Z,16.18
2023-05-25T06:38:44.210Z,16.23
2023-05-25T06:41:15.154Z,16.28
2023-05-25T06:43:43.723Z,16.34
2023-05-25T06:46:37.018Z,16.36
2023-05-25T06:49:04.569Z,16.41
2023-05-25T06:51:33.069Z,16.47
2023-05-25T06:54:00.215Z,16.54
2023-05-25T06:56:28.072Z,16.61
2023-05-25T06:58:55.243Z,16.65
2023-05-25T07:01:22.750Z,16.69
2023-05-25T07:03:50.130Z,16.72
2023-05-25T07:06:17.613Z,16.75
2023-05-25T07:08:44.957Z,16.81
2023-05-25T07:11:14.305Z,16.89
2023-05-25T07:13:41.978Z,16.97
2023-05-25T07:16:09.356Z,17.05
2023-05-25T07:18:39.404Z,17.14
2023-05-25T07:21:10.210Z,17.22
2023-05-25T07:23:38.118Z,17.32
2023-05-25T07:26:06.081Z,17.40
2023-05-25T07:28:33.959Z,17.43
2023-05-25T07:31:01.575Z,17.46
2023-05-25T07:33:29.125Z,17.50
2023-05-25T07:35:56.254Z,17.54
2023-05-25T07:38:23.293Z,17.59
2023-05-25T07:40:50.812Z,17.65
2023-05-25T07:43:17.855Z,17.74
2023-05-25T07:45:45.184Z,17.83
2023-05-25T07:48:12.531Z,17.93
2023-05-25T07:50:39.658Z,18.01
2023-05-25T07:53:06.734Z,18.06
2023-05-25T07:55:33.837Z,18.12
2023-05-25T07:58:01.094Z,18.18
2023-05-25T08:00:28.292Z,18.25
2023-05-25T08:02:56.430Z,18.32
2023-05-25T08:05:23.708Z,18.40
2023-05-25T08:07:50.831Z,18.45
2023-05-25T08:10:17.920Z,18.49
2023-05-25T08:12:49.661Z,18.55
2023-05-25T08:15:17.477Z,18.64
2023-05-25T08:17:45.157Z,18.75
2023-05-25T08:20:14.269Z,18.92
2023-05-25T08:22:41.439Z,19.01
2023-05-25T08:25:08.651Z,19.06
2023-05-25T08:27:36.718Z,19.02
2023-05-25T08:30:08.274Z,18.98
2023-05-25T08:32:35.582Z,18.96
2023-05-25T08:35:03.713Z,18.96
2023-05-25T08:37:32.244Z,18.94
2023-05-25T08:40:02.336Z,18.98
2023-05-25T08:42:33.428Z,19.03
2023-05-25T08:45:02.388Z,19.04
2023-05-25T08:47:33.986Z,19.04
2023-05-25T08:50:01.628Z,19.03
2023-05-25T08:52:33.472Z,19.03
2023-05-25T08:55:02.601Z,18.98
2023-05-25T08:57:57.888Z,18.96
2023-05-25T09:00:35.513Z,18.95
2023-05-25T09:03:20.784Z,18.94
2023-05-25T09:05:48.365Z,18.95
2023-05-25T09:08:15.641Z,18.99
2023-05-25T09:10:43.084Z,19.02
2023-05-25T09:13:21.486Z,19.08
2023-05-25T09:15:50.042Z,19.15
2023-05-25T09:18:17.222Z,19.15
2023-05-25T09:20:46.473Z,19.17
2023-05-25T09:23:15.135Z,19.12
2023-05-25T09:25:42.202Z,19.12
2023-05-25T09:28:25.355Z,19.10
2023-05-25T09:30:53.970Z,19.07
2023-05-25T09:33:21.239Z,19.05
2023-05-25T09:35:48.438Z,19.08
2023-05-25T09:38:16.585Z,19.08
2023-05-25T09:40:44.375Z,19.04
2023-05-25T09:43:24.870Z,19.02
2023-05-25T09:45:56.129Z,18.99
2023-05-25T09:48:24.377Z,19.00
2023-05-25T09:50:52.006Z,19.00
2023-05-25T09:53:19.264Z,18.99
2023-05-25T09:55:53.979Z,18.99
2023-05-25T09:58:27.432Z,18.98
2023-05-25T10:00:57.251Z,18.99
2023-05-25T10:03:24.485Z,18.99
2023-05-25T10:05:52.197Z,19.00
2023-05-25T10:08:20.377Z,19.06
2023-05-25T10:10:50.063Z,19.07
2023-05-25T10:13:22.003Z,19.09
2023-05-25T10:15:49.191Z,19.09
2023-05-25T10:18:16.352Z,19.09
2023-05-25T10:20:44.362Z,19.15
2023-05-25T10:23:13.168Z,19.26
2023-05-25T10:25:43.159Z,19.44
2023-05-25T10:28:36.551Z,19.60
2023-05-25T10:31:03.909Z,19.69
2023-05-25T10:36:10.893Z,19.80
2023-05-25T10:38:44.828Z,19.90
2023-05-25T10:41:12.303Z,19.91
2023-05-25T10:43:39.877Z,19.92
2023-05-25T10:46:07.384Z,19.96
2023-05-25T10:48:45.424Z,20.11
2023-05-25T10:51:12.840Z,20.28
2023-05-25T10:53:43.918Z,20.40
2023-05-25T10:56:12.341Z,20.51
2023-05-25T10:58:46.541Z,20.67
2023-05-25T11:01:15.218Z,20.77
2023-05-25T11:03:48.314Z,20.88
2023-05-25T11:06:16.424Z,21.02
2023-05-25T11:08:56.882Z,21.21
2023-05-25T11:11:43.846Z,21.36
2023-05-25T11:14:31.517Z,21.45
2023-05-25T11:17:15.049Z,21.52
2023-05-25T11:20:02.600Z,21.62
2023-05-25T11:35:16.444Z,21.83
2023-05-25T11:37:49.783Z,21.90
2023-05-25T11:40:17.520Z,21.94
2023-05-25T11:42:46.792Z,22.03
2023-05-25T11:45:17.743Z,22.04
2023-05-25T11:47:44.852Z,22.09
2023-05-25T11:50:17.802Z,22.19
2023-05-25T11:52:44.861Z,22.25
2023-05-25T11:55:15.239Z,22.30
2023-05-25T11:57:42.473Z,22.31
2023-05-25T12:00:11.567Z,22.32
2023-05-25T12:02:41.704Z,22.29
2023-05-25T12:05:11.165Z,22.27
2023-05-25T12:07:43.852Z,22.24
2023-05-25T12:10:12.069Z,22.19
2023-05-25T12:12:48.379Z,22.14
2023-05-25T12:15:22.783Z,22.18
2023-05-25T12:17:49.995Z,22.24
2023-05-25T12:20:17.429Z,22.23
2023-05-25T12:22:45.188Z,22.20
2023-05-25T12:25:12.872Z,22.15
2023-05-25T12:27:40.757Z,22.10
2023-05-25T12:30:09.354Z,22.14
2023-05-25T12:32:56.439Z,22.09
2023-05-25T12:35:23.582Z,22.14
2023-05-25T12:37:50.713Z,22.15
2023-05-25T12:40:20.463Z,22.17
2023-05-25T12:42:56.789Z,22.19
2023-05-25T12:45:24.457Z,22.15
2023-05-25T12:47:51.743Z,22.07
2023-05-25T12:50:19.657Z,22.02
2023-05-25T12:52:47.738Z,21.96
2023-05-25T12:55:34.503Z,21.93
2023-05-25T12:58:06.033Z,21.86
2023-05-25T13:00:35.516Z,21.82
2023-05-25T13:03:03.337Z,21.76
2023-05-25T13:05:32.997Z,21.73
2023-05-25T13:08:00.320Z,21.59
2023-05-25T13:10:28.168Z,21.48
2023-05-25T13:12:58.465Z,21.41
2023-05-25T13:15:26.871Z,21.30
2023-05-25T13:17:54.928Z,21.21
2023-05-25T13:20:23.061Z,21.18
2023-05-25T13:22:51.244Z,21.14
2023-05-25T13:25:18.399Z,21.13
2023-05-25T13:27:49.743Z,21.13
2023-05-25T13:30:17.357Z,21.09
2023-05-25T13:32:44.737Z,21.01
2023-05-25T13:35:38.045Z,20.90
2023-05-25T13:38:06.065Z,20.81
2023-05-25T13:40:33.245Z,20.75
2023-05-25T13:43:00.501Z,20.66
2023-05-25T13:45:27.624Z,20.62
2023-05-25T13:47:54.657Z,20.60
2023-05-25T13:50:21.815Z,20.51
2023-05-25T13:52:49.286Z,20.45
2023-05-25T13:55:16.629Z,20.36
2023-05-25T13:57:44.075Z,20.28
2023-05-25T14:00:11.739Z,20.21
2023-05-25T14:02:39.264Z,20.13
2023-05-25T14:05:06.633Z,20.07
2023-05-25T14:07:34.020Z,19.98
2023-05-25T14:10:01.207Z,19.92
2023-05-25T14:12:31.659Z,19.88
2023-05-25T14:14:58.856Z,19.83
2023-05-25T14:17:25.951Z,19.78
2023-05-25T14:19:53.054Z,19.74
2023-05-25T14:22:20.096Z,19.72
2023-05-25T14:24:47.087Z,19.71
2023-05-25T14:27:16.193Z,19.68
2023-05-25T14:29:43.284Z,19.63
2023-05-25T14:32:10.754Z,19.61
2023-05-25T14:34:37.776Z,19.58
2023-05-25T14:37:04.926Z,19.54
2023-05-25T14:39:32.007Z,19.50
2023-05-25T14:41:59.180Z,19.49
2023-05-25T14:44:26.306Z,19.43
2023-05-25T14:46:53.529Z,19.36
2023-05-25T14:49:24.829Z,19.33
2023-05-25T14:51:51.887Z,19.32
2023-05-25T14:54:19.021Z,19.28
2023-05-25T14:56:45.967Z,19.26
2023-05-25T14:59:13.000Z,19.26
2023-05-25T15:01:40.630Z,19.19
2023-05-25T15:04:08.773Z,19.18
2023-05-25T15:06:36.967Z,19.15
2023-05-25T15:09:04.077Z,19.13
2023-05-25T15:11:31.358Z,19.11
2023-05-25T15:13:59.080Z,19.07
2023-05-25T15:16:26.891Z,19.08
2023-05-25T15:18:54.055Z,19.05
2023-05-25T15:21:21.212Z,19.06
2023-05-25T15:23:48.370Z,19.07
2023-05-25T15:26:15.385Z,19.06
2023-05-25T15:28:42.425Z,19.05
2023-05-25T15:31:09.476Z,19.05
2023-05-25T15:33:53.773Z,19.07
2023-05-25T15:36:23.798Z,19.06
2023-05-25T15:38:51.012Z,19.06
2023-05-25T15:41:18.146Z,19.06
2023-05-25T15:43:54.594Z,19.04
2023-05-25T15:46:22.174Z,19.01
2023-05-25T15:48:49.352Z,19.00
2023-05-25T15:51:16.753Z,18.99
2023-05-25T15:53:44.228Z,18.98
2023-05-25T15:56:11.140Z,18.98
2023-05-25T15:58:38.139Z,18.95
2023-05-25T16:01:05.544Z,18.95
2023-05-25T16:03:33.959Z,18.95
2023-05-25T16:06:02.470Z,18.92
2023-05-25T16:08:29.654Z,18.90
2023-05-25T16:10:56.813Z,18.90
2023-05-25T16:13:23.908Z,18.87
2023-05-25T16:15:51.127Z,18.84
2023-05-25T16:18:18.357Z,18.83
2023-05-25T16:20:45.709Z,18.79
2023-05-25T16:23:12.781Z,18.77
2023-05-25T16:25:39.872Z,18.71
2023-05-25T16:28:06.883Z,18.69
2023-05-25T16:30:33.972Z,18.68
2023-05-25T16:33:01.055Z,18.66
2023-05-25T16:35:28.104Z,18.68
2023-05-25T16:37:55.120Z,18.66
2023-05-25T16:40:22.181Z,18.60
2023-05-25T16:42:49.281Z,18.55
2023-05-25T16:45:16.370Z,18.50
2023-05-25T16:47:43.541Z,18.46
2023-05-25T16:50:10.772Z,18.45
2023-05-25T16:52:37.920Z,18.43
2023-05-25T16:55:05.479Z,18.40
2023-05-25T16:57:32.580Z,18.38
2023-05-25T16:59:59.606Z,18.36
2023-05-25T17:02:27.012Z,18.30
2023-05-25T17:04:54.307Z,18.27
2023-05-25T17:07:21.343Z,18.21
2023-05-25T17:09:48.501Z,18.18
2023-05-25T17:12:15.694Z,18.15
2023-05-25T17:14:42.889Z,18.09
2023-05-25T17:17:09.998Z,18.02
2023-05-25T17:19:37.191Z,17.95
2023-05-25T17:22:04.315Z,17.91
2023-05-25T17:24:31.401Z,17.84
2023-05-25T17:27:04.647Z,17.82
2023-05-25T17:29:32.146Z,17.79
2023-05-25T17:31:59.307Z,17.72
2023-05-25T17:34:26.570Z,17.66
2023-05-25T17:36:53.684Z,17.65
2023-05-25T17:39:20.763Z,17.64
2023-05-25T17:41:49.740Z,17.62
2023-05-25T17:44:17.572Z,17.58
2023-05-25T17:46:44.694Z,17.54
2023-05-25T17:49:11.900Z,17.50
2023-05-25T17:51:39.054Z,17.47
2023-05-25T17:54:06.633Z,17.45
2023-05-25T17:56:33.739Z,17.43
2023-05-25T17:59:01.116Z,17.40
2023-05-25T18:01:28.412Z,17.40
2023-05-25T18:03:58.764Z,17.35
2023-05-25T18:06:27.755Z,17.34
2023-05-25T18:08:56.448Z,17.32
2023-05-25T18:11:24.198Z,17.31
2023-05-25T18:13:57.080Z,17.30
2023-05-25T18:16:24.135Z,17.31
2023-05-25T18:18:51.187Z,17.32
2023-05-25T18:21:18.299Z,17.31
2023-05-25T18:23:45.530Z,17.29
2023-05-25T18:26:12.598Z,17.28
2023-05-25T18:28:39.659Z,17.28
2023-05-25T18:31:10.567Z,17.25
2023-05-25T18:33:37.749Z,17.25
2023-05-25T18:36:05.301Z,17.25
2023-05-25T18:38:32.621Z,17.20
2023-05-25T18:40:59.794Z,17.20
2023-05-25T18:43:26.919Z,17.21
2023-05-25T18:45:54.178Z,17.19
2023-05-25T18:48:24.212Z,17.16
2023-05-25T18:50:51.466Z,17.15
2023-05-25T18:53:18.613Z,17.13
2023-05-25T18:55:48.709Z,17.11
2023-05-25T18:58:15.870Z,17.07
2023-05-25T19:00:45.944Z,17.05
2023-05-25T19:03:13.168Z,17.03
2023-05-25T19:05:40.544Z,17.00
2023-05-25T19:08:07.633Z,17.01
2023-05-25T19:10:34.760Z,16.99
2023-05-25T19:13:04.303Z,16.95
2023-05-25T19:15:31.384Z,16.95
2023-05-25T19:17:58.424Z,16.94
2023-05-25T19:20:25.644Z,16.94
2023-05-25T19:22:52.610Z,16.94
2023-05-25T19:25:19.835Z,16.95
2023-05-25T19:27:47.445Z,16.94
2023-05-25T19:30:14.484Z,16.91
2023-05-25T19:32:42.097Z,16.86
2023-05-25T19:35:09.356Z,16.84
2023-05-25T19:37:40.809Z,16.81
2023-05-25T19:40:09.538Z,16.79
2023-05-25T19:42:37.179Z,16.80
2023-05-25T19:45:04.596Z,16.80
2023-05-25T19:47:34.674Z,16.79
2023-05-25T19:50:01.896Z,16.79
2023-05-25T19:52:31.796Z,16.77
2023-05-25T19:54:58.872Z,16.78
2023-05-25T19:57:27.411Z,16.76
2023-05-25T19:59:54.402Z,16.73
2023-05-25T20:02:21.606Z,16.71
2023-05-25T20:04:48.909Z,16.70
2023-05-25T20:07:17.918Z,16.68
2023-05-25T20:09:45.416Z,16.66
2023-05-25T20:12:13.779Z,16.65
2023-05-25T20:14:40.922Z,16.63
2023-05-25T20:17:08.026Z,16.61
2023-05-25T20:19:35.178Z,16.60
2023-05-25T20:22:02.696Z,16.58
2023-05-25T20:24:29.743Z,16.55
2023-05-25T20:26:57.005Z,16.55
2023-05-25T20:29:24.271Z,16.52
2023-05-25T20:31:52.448Z,16.47
2023-05-25T20:34:19.750Z,16.43
2023-05-25T20:36:46.768Z,16.41
2023-05-25T20:39:14.083Z,16.41
2023-05-25T20:41:41.266Z,16.41
2023-05-25T20:44:08.986Z,16.41
2023-05-25T20:46:36.250Z,16.42
2023-05-25T20:49:03.702Z,16.39
2023-05-25T20:51:31.365Z,16.35
2023-05-25T20:53:58.529Z,16.33
2023-05-25T20:56:26.877Z,16.32
2023-05-25T20:58:53.949Z,16.33
2023-05-25T21:01:21.313Z,16.33
2023-05-25T21:03:48.657Z,16.28
2023-05-25T21:06:16.269Z,16.28
2023-05-25T21:08:44.543Z,16.24
2023-05-25T21:11:12.101Z,16.21
2023-05-25T21:13:39.342Z,16.18
2023-05-25T21:16:06.770Z,16.16
2023-05-25T21:18:33.754Z,16.12
2023-05-25T21:21:01.764Z,16.11
2023-05-25T21:23:28.908Z,16.11
2023-05-25T21:25:56.038Z,16.10
2023-05-25T21:28:24.142Z,16.09
2023-05-25T21:30:51.505Z,16.10
2023-05-25T21:33:18.618Z,16.13
2023-05-25T21:35:46.067Z,16.16
2023-05-25T21:38:13.855Z,16.19
2023-05-25T21:40:41.282Z,16.22
2023-05-25T21:43:09.321Z,16.24
2023-05-25T21:45:36.575Z,16.24
2023-05-25T21:48:04.238Z,16.24
2023-05-25T21:50:31.312Z,16.23
2023-05-25T21:52:58.538Z,16.23
2023-05-25T21:55:26.836Z,16.21
2023-05-25T21:57:54.181Z,16.21
2023-05-25T22:00:21.532Z,16.25
2023-05-25T22:02:49.003Z,16.25
2023-05-25T22:05:16.150Z,16.25
2023-05-25T22:07:43.408Z,16.25
2023-05-25T22:10:10.719Z,16.22
2023-05-25T22:12:37.951Z,16.22
2023-05-25T22:15:06.280Z,16.23
2023-05-25T22:17:34.010Z,16.22
2023-05-25T22:20:08.007Z,16.19
2023-05-25T22:22:35.767Z,16.14
2023-05-25T22:25:03.209Z,16.09
2023-05-25T22:27:33.237Z,16.05
2023-05-25T22:30:00.551Z,16.02
2023-05-25T22:32:27.905Z,16.01
2023-05-25T22:34:55.130Z,16.03
2023-05-25T22:37:22.279Z,16.02
2023-05-25T22:39:49.682Z,15.97
2023-05-25T22:42:16.758Z,15.95
2023-05-25T22:44:43.841Z,15.94
2023-05-25T22:47:10.915Z,15.90
2023-05-25T22:49:42.322Z,15.90
2023-05-25T22:52:10.977Z,15.91
2023-05-25T22:54:38.093Z,15.89
2023-05-25T22:57:05.795Z,15.88
2023-05-25T22:59:32.843Z,15.90
2023-05-25T23:01:59.980Z,15.91
2023-05-25T23:04:27.247Z,15.91
2023-05-25T23:06:54.255Z,15.90
2023-05-25T23:09:21.298Z,15.89
2023-05-25T23:11:48.395Z,15.89
2023-05-25T23:14:15.369Z,15.85
2023-05-25T23:16:42.515Z,15.79
2023-05-25T23:19:09.662Z,15.79
2023-05-25T23:21:36.691Z,15.77
2023-05-25T23:24:03.784Z,15.76
2023-05-25T23:26:30.925Z,15.75
2023-05-25T23:28:58.058Z,15.74
2023-05-25T23:31:25.266Z,15.74
2023-05-25T23:33:52.347Z,15.74
2023-05-25T23:36:19.359Z,15.75
2023-05-25T23:38:46.591Z,15.75
2023-05-25T23:41:14.928Z,15.75
2023-05-25T23:43:41.993Z,15.76
2023-05-25T23:46:09.125Z,15.75
2023-05-25T23:48:36.472Z,15.76
2023-05-25T23:51:04.162Z,15.77
2023-05-25T23:53:31.215Z,15.78
2023-05-25T23:55:58.212Z,15.77
2023-05-25T23:58:25.339Z,15.76
